Time;durP1;ratioP1;P1;durP2;ratioP2;P2;SDS_P1;SDS_P2;PMS_P1;PMS_P2;Temp;Humidity;BMP_temperature;BMP_pressure;BME280_temperature;BME280_humidity;BME280_pressure;Samples;Min_cycle;Max_cycle;Signal;HPM_P1;HPM_P2
2024/01/07 00:01:01;;;;;;;;;;;16.50;63.20;;;;;;10137195;28;92817;-41
2024/01/07 00:06:04;;;;;;;;;;;16.50;62.00;;;;;;10156164;28;96619;-41
2024/01/07 00:11:05;;;;;;;;;;;16.50;61.80;;;;;;10132032;28;94767;-42
2024/01/07 00:16:07;;;;;;;;;;;16.50;61.40;;;;;;10131469;28;94102;-42
2024/01/07 00:21:09;;;;;;;;;;;16.50;61.20;;;;;;10143568;28;93356;-43
2024/01/07 00:26:11;;;;;;;;;;;16.50;61.00;;;;;;10149885;28;93436;-64
2024/01/07 00:31:13;;;;;;;;;;;16.50;60.70;;;;;;10124119;28;93150;-46
2024/01/07 00:36:15;;;;;;;;;;;16.50;60.60;;;;;;10146665;28;94428;-44
2024/01/07 00:41:17;;;;;;;;;;;16.50;60.40;;;;;;10167566;28;92849;-42
2024/01/07 00:46:19;;;;;;;;;;;16.40;60.20;;;;;;10160274;28;93402;-42
2024/01/07 00:51:21;;;;;;;;;;;16.40;60.70;;;;;;10157802;28;93469;-44
2024/01/07 00:56:25;;;;;;;;;;;16.40;61.10;;;;;;10142361;28;95674;-42
2024/01/07 01:01:27;;;;;;;;;;;16.30;61.00;;;;;;10152912;28;94460;-44
2024/01/07 01:06:29;;;;;;;;;;;16.40;60.80;;;;;;10144599;28;97002;-43
2024/01/07 01:11:30;;;;;;;;;;;16.30;60.40;;;;;;10135196;28;94501;-44
2024/01/07 01:16:32;;;;;;;;;;;16.30;60.20;;;;;;10144511;28;93727;-41
2024/01/07 01:21:34;;;;;;;;;;;16.30;60.00;;;;;;10142094;28;93479;-43
2024/01/07 01:26:36;;;;;;;;;;;16.30;59.80;;;;;;10183044;28;93551;-43
2024/01/07 01:31:38;;;;;;;;;;;16.30;59.60;;;;;;10166269;28;92677;-44
2024/01/07 01:36:40;;;;;;;;;;;16.30;59.40;;;;;;10154812;28;93377;-44
2024/01/07 01:41:42;;;;;;;;;;;16.30;59.40;;;;;;10166877;28;93413;-42
2024/01/07 01:46:45;;;;;;;;;;;16.30;59.90;;;;;;10150283;28;95851;-46
2024/01/07 01:51:47;;;;;;;;;;;16.30;60.70;;;;;;10150684;28;94595;-45
2024/01/07 01:56:49;;;;;;;;;;;16.30;60.10;;;;;;10134085;28;92964;-43
2024/01/07 02:07:05;;;;;;;;;;;16.30;59.40;;;;;;10163258;23;93729;-61
2024/01/07 02:12:11;;;;;;;;;;;16.30;59.30;;;;;;10225349;28;93780;-61
2024/01/07 02:17:14;;;;;;;;;;;16.30;59.00;;;;;;10233133;28;93923;-61
2024/01/07 02:22:16;;;;;;;;;;;16.30;58.70;;;;;;10245800;28;93588;-61
2024/01/07 02:27:18;;;;;;;;;;;16.30;58.60;;;;;;10228742;28;93840;-61
2024/01/07 02:32:20;;;;;;;;;;;16.30;58.40;;;;;;10235391;28;94585;-61
2024/01/07 02:37:22;;;;;;;;;;;16.30;58.60;;;;;;10212657;28;96544;-61
2024/01/07 02:42:23;;;;;;;;;;;16.30;59.20;;;;;;10240848;28;94481;-61
2024/01/07 02:47:25;;;;;;;;;;;16.20;59.20;;;;;;10234848;28;94035;-61
2024/01/07 02:52:27;;;;;;;;;;;16.10;59.10;;;;;;10232228;28;94433;-61
2024/01/07 02:57:29;;;;;;;;;;;16.20;58.90;;;;;;10207048;28;94442;-61
2024/01/07 03:02:31;;;;;;;;;;;16.20;58.60;;;;;;10240393;28;93548;-61
2024/01/07 03:07:33;;;;;;;;;;;16.20;58.40;;;;;;10231737;28;94563;-61
2024/01/07 03:12:35;;;;;;;;;;;16.20;58.20;;;;;;10214297;28;93125;-61
2024/01/07 03:17:36;;;;;;;;;;;16.20;58.00;;;;;;10231048;28;94504;-62
2024/01/07 03:22:38;;;;;;;;;;;16.20;57.80;;;;;;10236740;28;94500;-61
2024/01/07 03:27:40;;;;;;;;;;;16.20;57.70;;;;;;10211256;28;96299;-62
2024/01/07 03:32:42;;;;;;;;;;;16.10;57.80;;;;;;10232280;28;93349;-61
2024/01/07 03:37:44;;;;;;;;;;;16.10;58.40;;;;;;10202811;28;93516;-61
2024/01/07 03:42:46;;;;;;;;;;;16.00;58.60;;;;;;10239673;28;92682;-61
2024/01/07 03:47:48;;;;;;;;;;;16.00;58.50;;;;;;10235015;28;93820;-61
2024/01/07 03:52:50;;;;;;;;;;;16.00;58.30;;;;;;10236157;28;94440;-61
2024/01/07 03:57:52;;;;;;;;;;;16.10;58.00;;;;;;10237103;28;93886;-61
2024/01/07 04:02:53;;;;;;;;;;;16.00;57.60;;;;;;10226327;28;92828;-61
2024/01/07 04:07:55;;;;;;;;;;;16.10;57.60;;;;;;10232571;28;93257;-61
2024/01/07 04:12:57;;;;;;;;;;;16.10;57.40;;;;;;10222896;28;94432;-62
2024/01/07 04:18:00;;;;;;;;;;;16.00;57.30;;;;;;10221836;28;95832;-61
2024/01/07 04:23:02;;;;;;;;;;;16.00;57.10;;;;;;10246564;28;93276;-61
2024/01/07 04:28:04;;;;;;;;;;;16.00;57.30;;;;;;10233346;28;93509;-61
2024/01/07 04:33:06;;;;;;;;;;;16.00;57.90;;;;;;10218414;28;94949;-61
2024/01/07 04:38:08;;;;;;;;;;;15.90;58.00;;;;;;10224950;28;93490;-61
2024/01/07 04:43:10;;;;;;;;;;;15.90;58.40;;;;;;10227827;28;93596;-61
2024/01/07 04:48:13;;;;;;;;;;;15.90;58.40;;;;;;10242438;28;93781;-61
2024/01/07 04:53:15;;;;;;;;;;;15.80;58.40;;;;;;10236238;28;93746;-62
2024/01/07 04:58:16;;;;;;;;;;;15.80;58.60;;;;;;10246483;28;93435;-60
2024/01/07 05:03:18;;;;;;;;;;;15.70;58.70;;;;;;10236926;28;94466;-61
2024/01/07 05:08:20;;;;;;;;;;;15.70;58.80;;;;;;10217493;28;95941;-61
2024/01/07 05:13:27;;;;;;;;;;;15.70;58.80;;;;;;10245683;28;93363;-61
2024/01/07 05:18:29;;;;;;;;;;;15.80;59.20;;;;;;10232735;28;93737;-61
2024/01/07 05:23:30;;;;;;;;;;;15.80;59.10;;;;;;10228442;28;93817;-61
2024/01/07 05:28:32;;;;;;;;;;;15.80;59.00;;;;;;10242842;28;93498;-61
2024/01/07 05:33:34;;;;;;;;;;;15.80;58.90;;;;;;10234712;28;93403;-61
2024/01/07 05:38:36;;;;;;;;;;;15.80;58.90;;;;;;10249919;28;93474;-62
2024/01/07 05:43:38;;;;;;;;;;;15.80;59.10;;;;;;10230385;28;92697;-61
2024/01/07 05:48:49;;;;;;;;;;;15.90;59.30;;;;;;10224954;28;93567;-61
2024/01/07 05:53:51;;;;;;;;;;;16.00;59.50;;;;;;10233734;28;94881;-61
2024/01/07 05:58:53;;;;;;;;;;;16.20;59.20;;;;;;10241635;28;95902;-61
2024/01/07 06:03:55;;;;;;;;;;;16.40;58.90;;;;;;10240883;28;94967;-61
2024/01/07 06:08:57;;;;;;;;;;;16.50;58.50;;;;;;10237296;28;93671;-61
2024/01/07 06:13:59;;;;;;;;;;;16.60;58.30;;;;;;10243945;28;92951;-61
2024/01/07 06:19:01;;;;;;;;;;;16.60;58.30;;;;;;10241029;28;94709;-61
2024/01/07 06:24:03;;;;;;;;;;;16.60;58.20;;;;;;10252097;28;94555;-61
2024/01/07 06:29:04;;;;;;;;;;;16.60;58.20;;;;;;10237942;28;94586;-61
2024/01/07 06:34:06;;;;;;;;;;;16.50;58.10;;;;;;10239241;28;94100;-61
2024/01/07 06:39:08;;;;;;;;;;;16.50;58.10;;;;;;10227604;28;93450;-61
2024/01/07 06:44:10;;;;;;;;;;;16.50;58.30;;;;;;10236272;28;94784;-61
2024/01/07 06:49:12;;;;;;;;;;;16.50;58.40;;;;;;10239105;28;97583;-62
2024/01/07 06:54:13;;;;;;;;;;;16.50;58.30;;;;;;10226872;28;94976;-62
2024/01/07 06:59:16;;;;;;;;;;;16.50;58.30;;;;;;10238318;28;93268;-61
2024/01/07 07:04:17;;;;;;;;;;;16.50;58.20;;;;;;10218217;28;93055;-61
2024/01/07 07:09:19;;;;;;;;;;;16.40;58.20;;;;;;10211166;28;93496;-61
2024/01/07 07:14:21;;;;;;;;;;;16.40;58.40;;;;;;10222675;28;93900;-61
2024/01/07 07:19:23;;;;;;;;;;;16.50;58.30;;;;;;10229061;28;94399;-61
2024/01/07 07:24:25;;;;;;;;;;;16.50;58.30;;;;;;10236066;28;92909;-60
2024/01/07 07:29:27;;;;;;;;;;;16.50;58.20;;;;;;10232183;28;93672;-61
2024/01/07 07:34:29;;;;;;;;;;;16.50;58.20;;;;;;10230280;28;93491;-61
2024/01/07 07:39:31;;;;;;;;;;;16.40;58.20;;;;;;10221208;28;96138;-60
2024/01/07 07:44:33;;;;;;;;;;;16.40;58.20;;;;;;10240000;28;94167;-60
2024/01/07 07:49:36;;;;;;;;;;;16.40;58.20;;;;;;10227820;28;93411;-63
2024/01/07 07:54:38;;;;;;;;;;;16.40;59.10;;;;;;10238688;28;93436;-61
2024/01/07 07:59:40;;;;;;;;;;;16.40;59.90;;;;;;10219871;28;96001;-61
2024/01/07 08:04:43;;;;;;;;;;;16.50;60.20;;;;;;10238007;28;94058;-61
2024/01/07 08:09:44;;;;;;;;;;;16.50;59.80;;;;;;10229390;28;94013;-60
2024/01/07 08:14:48;;;;;;;;;;;16.60;59.40;;;;;;10234925;28;113254;-61
2024/01/07 08:19:50;;;;;;;;;;;16.60;59.20;;;;;;10256344;28;93492;-61
2024/01/07 08:24:53;;;;;;;;;;;16.60;59.10;;;;;;10232678;28;93619;-59
2024/01/07 08:29:55;;;;;;;;;;;16.60;59.10;;;;;;10238998;28;96215;-61
2024/01/07 08:34:57;;;;;;;;;;;16.60;59.10;;;;;;10251694;28;93863;-64
2024/01/07 08:39:59;;;;;;;;;;;16.60;59.20;;;;;;10235286;28;94179;-61
2024/01/07 08:45:03;;;;;;;;;;;16.60;59.70;;;;;;10229102;28;94790;-62
2024/01/07 08:50:05;;;;;;;;;;;16.60;60.20;;;;;;10231573;28;94583;-61
2024/01/07 08:55:09;;;;;;;;;;;16.60;60.00;;;;;;10230504;28;94376;-61
2024/01/07 09:00:12;;;;;;;;;;;16.60;59.40;;;;;;10215637;28;94571;-62
2024/01/07 09:05:14;;;;;;;;;;;16.60;59.00;;;;;;10210886;28;93408;-61
2024/01/07 09:10:16;;;;;;;;;;;16.60;58.80;;;;;;10233161;28;94653;-60
2024/01/07 09:15:18;;;;;;;;;;;16.60;58.60;;;;;;10226179;28;94471;-61
2024/01/07 09:20:20;;;;;;;;;;;16.60;58.50;;;;;;10216905;28;95840;-61
2024/01/07 09:25:22;;;;;;;;;;;16.60;58.30;;;;;;10212763;28;94317;-61
2024/01/07 09:30:24;;;;;;;;;;;16.60;58.00;;;;;;10230055;28;94695;-61
2024/01/07 09:35:26;;;;;;;;;;;16.60;57.80;;;;;;10231411;28;93653;-61
2024/01/07 09:40:27;;;;;;;;;;;16.60;57.90;;;;;;10217032;28;94505;-61
2024/01/07 09:45:29;;;;;;;;;;;16.60;57.70;;;;;;10228247;28;94108;-61
2024/01/07 09:50:31;;;;;;;;;;;16.60;57.60;;;;;;10235236;28;94638;-61
2024/01/07 09:55:37;;;;;;;;;;;16.60;57.40;;;;;;10234959;28;93181;-62
2024/01/07 10:00:39;;;;;;;;;;;16.60;57.50;;;;;;10211808;28;94365;-61
2024/01/07 10:05:41;;;;;;;;;;;16.60;57.40;;;;;;10226928;28;93696;-61
2024/01/07 10:10:43;;;;;;;;;;;16.70;57.20;;;;;;10228384;28;95584;-61
2024/01/07 10:15:45;;;;;;;;;;;16.70;57.00;;;;;;10244966;28;94324;-61
2024/01/07 10:20:47;;;;;;;;;;;16.70;57.00;;;;;;10222323;28;94546;-61
2024/01/07 10:25:49;;;;;;;;;;;16.70;57.00;;;;;;10230906;28;94067;-62
2024/01/07 10:30:52;;;;;;;;;;;16.70;56.80;;;;;;10241577;28;93439;-62
2024/01/07 10:36:00;;;;;;;;;;;16.70;56.60;;;;;;10223951;28;94403;-67
2024/01/07 10:41:04;;;;;;;;;;;16.70;56.50;;;;;;10208288;28;93399;-61
2024/01/07 10:46:09;;;;;;;;;;;16.70;56.60;;;;;;10221646;28;93686;-61
2024/01/07 10:51:12;;;;;;;;;;;16.80;56.70;;;;;;10236831;28;94369;-61
2024/01/07 10:56:15;;;;;;;;;;;17.00;56.50;;;;;;10219611;28;93548;-61
2024/01/07 11:01:17;;;;;;;;;;;17.20;56.10;;;;;;10229102;28;95811;-61
2024/01/07 11:06:27;;;;;;;;;;;17.40;55.70;;;;;;10222720;28;94651;-61
2024/01/07 11:11:37;;;;;;;;;;;17.50;55.30;;;;;;10217306;28;94635;-61
2024/01/07 11:16:38;;;;;;;;;;;17.60;55.00;;;;;;10224169;28;94653;-62
2024/01/07 11:21:40;;;;;;;;;;;17.50;54.80;;;;;;10215149;28;92833;-61
2024/01/07 11:26:42;;;;;;;;;;;17.50;54.80;;;;;;10233036;28;93466;-61
2024/01/07 11:31:47;;;;;;;;;;;17.40;54.80;;;;;;10233618;28;94110;-61
2024/01/07 11:36:49;;;;;;;;;;;17.30;54.80;;;;;;10232099;28;93166;-63
2024/01/07 11:41:51;;;;;;;;;;;17.30;54.90;;;;;;10230825;28;93570;-62
2024/01/07 11:46:52;;;;;;;;;;;17.20;56.50;;;;;;10229221;28;94152;-61
2024/01/07 11:51:54;;;;;;;;;;;17.30;58.50;;;;;;10222252;28;96619;-61
2024/01/07 11:56:56;;;;;;;;;;;17.30;61.50;;;;;;10232611;28;94174;-61
2024/01/07 12:01:59;;;;;;;;;;;17.50;63.00;;;;;;10210765;28;93476;-61
2024/01/07 12:07:02;;;;;;;;;;;17.70;59.90;;;;;;10235533;28;94467;-61
2024/01/07 12:12:04;;;;;;;;;;;17.70;58.70;;;;;;10243747;28;94670;-61
2024/01/07 12:17:08;;;;;;;;;;;17.80;58.40;;;;;;10228462;28;93901;-61
2024/01/07 12:22:17;;;;;;;;;;;17.80;58.20;;;;;;10244937;28;93290;-61
2024/01/07 12:27:19;;;;;;;;;;;17.70;58.40;;;;;;10221145;28;92758;-61
2024/01/07 12:32:27;;;;;;;;;;;17.70;58.50;;;;;;10228404;28;94812;-62
2024/01/07 12:37:30;;;;;;;;;;;17.70;59.10;;;;;;10236156;28;94015;-59
2024/01/07 12:42:32;;;;;;;;;;;17.70;58.90;;;;;;10237610;28;97076;-62
2024/01/07 12:47:34;;;;;;;;;;;17.60;58.80;;;;;;10233373;28;95541;-61
2024/01/07 12:52:38;;;;;;;;;;;17.60;59.00;;;;;;10216242;28;93914;-62
2024/01/07 12:57:40;;;;;;;;;;;17.60;59.00;;;;;;10221255;28;93378;-62
2024/01/07 13:02:42;;;;;;;;;;;17.60;58.90;;;;;;10241215;28;94653;-62
2024/01/07 13:07:44;;;;;;;;;;;17.70;58.80;;;;;;10212490;28;94030;-62
2024/01/07 13:12:46;;;;;;;;;;;17.80;58.60;;;;;;10241998;28;94565;-62
2024/01/07 13:17:53;;;;;;;;;;;17.80;58.70;;;;;;10220213;28;93924;-62
2024/01/07 13:22:55;;;;;;;;;;;17.70;58.40;;;;;;10238770;28;94538;-62
2024/01/07 13:27:58;;;;;;;;;;;17.80;58.70;;;;;;10220837;28;93597;-63
2024/01/07 13:33:00;;;;;;;;;;;17.80;58.50;;;;;;10232589;28;96068;-62
2024/01/07 13:38:04;;;;;;;;;;;17.80;58.50;;;;;;10224728;28;94514;-62
2024/01/07 13:43:06;;;;;;;;;;;17.80;58.50;;;;;;10235266;28;94373;-62
2024/01/07 13:48:08;;;;;;;;;;;17.70;58.60;;;;;;10243044;28;94591;-62
2024/01/07 13:53:10;;;;;;;;;;;17.70;58.60;;;;;;10241365;28;94031;-62
2024/01/07 13:58:12;;;;;;;;;;;17.70;58.50;;;;;;10246147;28;94606;-62
2024/01/07 14:03:14;;;;;;;;;;;17.70;58.70;;;;;;10235631;28;93660;-62
2024/01/07 14:08:16;;;;;;;;;;;17.70;58.50;;;;;;10232952;28;92497;-62
2024/01/07 14:13:19;;;;;;;;;;;17.70;58.50;;;;;;10239750;28;93432;-63
2024/01/07 14:18:22;;;;;;;;;;;17.70;58.10;;;;;;10235635;28;94720;-62
2024/01/07 14:23:24;;;;;;;;;;;17.70;57.70;;;;;;10214720;28;96436;-63
2024/01/07 14:28:26;;;;;;;;;;;17.70;57.30;;;;;;10224949;28;95016;-64
2024/01/07 14:33:28;;;;;;;;;;;17.70;57.20;;;;;;10233299;28;93909;-63
2024/01/07 14:38:30;;;;;;;;;;;17.70;56.90;;;;;;10216250;28;94034;-61
2024/01/07 14:43:32;;;;;;;;;;;17.80;56.40;;;;;;10215088;28;93671;-61
2024/01/07 14:48:34;;;;;;;;;;;17.80;55.90;;;;;;10233795;28;94606;-61
2024/01/07 14:53:36;;;;;;;;;;;17.80;55.70;;;;;;10215129;28;93863;-61
2024/01/07 14:58:38;;;;;;;;;;;17.80;55.50;;;;;;10233819;28;92529;-61
2024/01/07 15:03:40;;;;;;;;;;;17.80;55.20;;;;;;10208887;28;93391;-61
2024/01/07 15:08:43;;;;;;;;;;;17.80;55.00;;;;;;10232279;28;93952;-61
2024/01/07 15:13:45;;;;;;;;;;;17.80;54.80;;;;;;10218194;28;96802;-61
2024/01/07 15:18:46;;;;;;;;;;;17.70;54.60;;;;;;10221265;28;93456;-61
2024/01/07 15:23:48;;;;;;;;;;;17.70;54.50;;;;;;10241737;28;94777;-61
2024/01/07 15:28:50;;;;;;;;;;;17.80;54.30;;;;;;10199975;28;94497;-61
2024/01/07 15:33:52;;;;;;;;;;;17.80;54.00;;;;;;10243666;28;93511;-61
2024/01/07 15:38:54;;;;;;;;;;;17.80;53.80;;;;;;10231042;28;93848;-61
2024/01/07 15:43:56;;;;;;;;;;;17.80;53.70;;;;;;10211609;28;94169;-62
2024/01/07 15:48:58;;;;;;;;;;;17.80;53.70;;;;;;10231640;28;93814;-61
2024/01/07 15:54:01;;;;;;;;;;;17.90;53.50;;;;;;10218658;28;93793;-62
2024/01/07 15:59:03;;;;;;;;;;;18.00;53.10;;;;;;10226584;28;94124;-62
2024/01/07 16:04:05;;;;;;;;;;;18.20;52.80;;;;;;10217448;28;97236;-61
2024/01/07 16:09:08;;;;;;;;;;;18.30;52.60;;;;;;10237303;28;94430;-62
2024/01/07 16:14:10;;;;;;;;;;;18.30;53.80;;;;;;10246407;28;94318;-61
2024/01/07 16:19:13;;;;;;;;;;;18.40;54.20;;;;;;10237260;28;93512;-62
2024/01/07 16:24:22;;;;;;;;;;;18.40;54.30;;;;;;10238438;28;92582;-63
2024/01/07 16:29:40;;;;;;;;;;;18.30;54.20;;;;;;10226362;28;94532;-62
2024/01/07 16:34:46;;;;;;;;;;;18.30;54.00;;;;;;10247363;28;94580;-62
2024/01/07 16:39:49;;;;;;;;;;;18.40;54.10;;;;;;10233173;28;93215;-62
2024/01/07 16:44:51;;;;;;;;;;;18.50;54.20;;;;;;10227586;28;94878;-62
2024/01/07 16:49:52;;;;;;;;;;;18.50;54.10;;;;;;10241387;28;94920;-62
2024/01/07 16:55:14;;;;;;;;;;;18.40;55.30;;;;;;10224268;28;99425;-62
2024/01/07 17:00:17;;;;;;;;;;;18.30;56.20;;;;;;10234409;28;93831;-62
2024/01/07 17:05:19;;;;;;;;;;;18.40;56.70;;;;;;10214818;28;93514;-62
2024/01/07 17:10:21;;;;;;;;;;;18.50;56.80;;;;;;10219990;28;94533;-61
2024/01/07 17:15:23;;;;;;;;;;;18.60;58.50;;;;;;10246710;28;94124;-62
2024/01/07 17:20:28;;;;;;;;;;;18.70;64.10;;;;;;10230128;28;94276;-61
2024/01/07 17:25:30;;;;;;;;;;;19.10;60.30;;;;;;10240932;28;93707;-61
2024/01/07 17:30:31;;;;;;;;;;;19.10;62.60;;;;;;10254719;28;92753;-61
2024/01/07 17:35:33;;;;;;;;;;;19.10;64.40;;;;;;10225415;28;94623;-62
2024/01/07 17:40:35;;;;;;;;;;;19.50;62.50;;;;;;10222523;28;93522;-63
2024/01/07 17:45:37;;;;;;;;;;;19.70;61.30;;;;;;10231618;28;96845;-65
2024/01/07 17:50:43;;;;;;;;;;;19.90;61.80;;;;;;10237543;28;94165;-62
2024/01/07 17:55:49;;;;;;;;;;;19.90;61.50;;;;;;10235119;28;94240;-62
2024/01/07 18:00:51;;;;;;;;;;;19.80;60.60;;;;;;10244702;28;93555;-62
2024/01/07 18:05:54;;;;;;;;;;;19.70;61.30;;;;;;10244043;28;93645;-62
2024/01/07 18:10:56;;;;;;;;;;;19.50;61.10;;;;;;10213878;28;93447;-63
2024/01/07 18:15:58;;;;;;;;;;;19.40;61.00;;;;;;10242756;28;93452;-61
2024/01/07 18:21:00;;;;;;;;;;;19.20;60.60;;;;;;10234041;28;94021;-61
2024/01/07 18:26:01;;;;;;;;;;;19.10;60.70;;;;;;10232697;28;94603;-62
2024/01/07 18:31:04;;;;;;;;;;;19.00;60.80;;;;;;10232035;28;94663;-62
2024/01/07 18:36:07;;;;;;;;;;;18.90;60.60;;;;;;10233983;28;96848;-62
2024/01/07 18:41:09;;;;;;;;;;;18.80;60.70;;;;;;10224252;28;93790;-62
2024/01/07 18:46:11;;;;;;;;;;;18.80;60.40;;;;;;10246430;28;94487;-62
2024/01/07 18:51:13;;;;;;;;;;;18.80;60.20;;;;;;10241144;28;94719;-62
2024/01/07 18:56:15;;;;;;;;;;;18.80;60.00;;;;;;10243230;28;93458;-62
2024/01/07 19:01:18;;;;;;;;;;;18.80;59.80;;;;;;10220586;28;93707;-62
2024/01/07 19:06:22;;;;;;;;;;;18.70;59.80;;;;;;10238411;28;94535;-62
2024/01/07 19:11:23;;;;;;;;;;;18.70;60.00;;;;;;10232466;28;92241;-61
2024/01/07 19:16:25;;;;;;;;;;;18.70;60.90;;;;;;10243734;28;94853;-62
2024/01/07 19:21:29;;;;;;;;;;;18.60;60.30;;;;;;10231562;28;93502;-62
2024/01/07 19:26:30;;;;;;;;;;;18.50;60.10;;;;;;10234389;28;96787;-62
2024/01/07 19:31:33;;;;;;;;;;;18.60;60.00;;;;;;10241618;28;94318;-63
2024/01/07 19:36:38;;;;;;;;;;;18.60;60.00;;;;;;10236485;28;95272;-62
2024/01/07 19:41:40;;;;;;;;;;;18.60;59.70;;;;;;10228464;28;94725;-62
2024/01/07 19:46:42;;;;;;;;;;;18.50;59.70;;;;;;10232713;28;94423;-61
2024/01/07 19:51:44;;;;;;;;;;;18.50;59.90;;;;;;10207915;28;94665;-62
2024/01/07 19:56:48;;;;;;;;;;;18.40;60.00;;;;;;10220506;28;94352;-61
2024/01/07 20:01:50;;;;;;;;;;;18.30;59.90;;;;;;10237694;28;93851;-62
2024/01/07 20:06:54;;;;;;;;;;;18.30;59.90;;;;;;10222571;28;94233;-61
2024/01/07 20:11:56;;;;;;;;;;;18.30;60.00;;;;;;10245139;28;92889;-62
2024/01/07 20:16:57;;;;;;;;;;;18.20;60.20;;;;;;10217497;28;96948;-63
2024/01/07 20:21:59;;;;;;;;;;;18.20;60.40;;;;;;10229381;28;93354;-65
2024/01/07 20:27:01;;;;;;;;;;;18.20;60.90;;;;;;10236943;28;94162;-62
2024/01/07 20:32:03;;;;;;;;;;;18.20;60.50;;;;;;10221070;28;94450;-62
2024/01/07 20:37:05;;;;;;;;;;;18.20;60.20;;;;;;10236728;28;93659;-62
2024/01/07 20:42:07;;;;;;;;;;;18.10;60.40;;;;;;10237206;28;93385;-62
2024/01/07 20:47:23;;;;;;;;;;;18.10;60.70;;;;;;10237276;28;94503;-62
2024/01/07 20:52:25;;;;;;;;;;;18.00;61.30;;;;;;10235377;28;93713;-62
2024/01/07 20:57:27;;;;;;;;;;;18.00;61.30;;;;;;10224520;28;94364;-62
2024/01/07 21:02:29;;;;;;;;;;;17.90;61.80;;;;;;10224108;28;94601;-62
2024/01/07 21:07:31;;;;;;;;;;;17.90;61.50;;;;;;10224524;28;98393;-63
2024/01/07 21:12:36;;;;;;;;;;;17.90;61.60;;;;;;10230585;28;94150;-62
2024/01/07 21:17:38;;;;;;;;;;;17.90;61.50;;;;;;10230693;28;93579;-63
2024/01/07 21:22:41;;;;;;;;;;;17.80;61.60;;;;;;10222270;28;94695;-62
2024/01/07 21:27:44;;;;;;;;;;;17.70;61.40;;;;;;10227402;28;94197;-63
2024/01/07 21:32:45;;;;;;;;;;;17.70;61.50;;;;;;10233710;28;94155;-63
2024/01/07 21:37:48;;;;;;;;;;;17.70;61.60;;;;;;10235298;28;93425;-62
2024/01/07 21:42:50;;;;;;;;;;;17.60;61.50;;;;;;10224016;28;93701;-63
2024/01/07 21:47:54;;;;;;;;;;;17.60;61.60;;;;;;10227181;28;93429;-63
2024/01/07 21:52:56;;;;;;;;;;;17.60;61.50;;;;;;10242224;28;93264;-62
2024/01/07 21:57:58;;;;;;;;;;;17.50;61.30;;;;;;10225117;28;96916;-62
2024/01/07 22:03:00;;;;;;;;;;;17.40;61.00;;;;;;10237505;28;93440;-62
2024/01/07 22:08:03;;;;;;;;;;;17.30;61.00;;;;;;10258255;28;93963;-63
2024/01/07 22:13:05;;;;;;;;;;;17.20;61.10;;;;;;10281663;28;92543;-62
2024/01/07 22:18:07;;;;;;;;;;;17.10;61.00;;;;;;10258226;28;93412;-62
2024/01/07 22:23:09;;;;;;;;;;;17.10;60.90;;;;;;10245514;28;94406;-62
2024/01/07 22:28:11;;;;;;;;;;;17.00;60.90;;;;;;10242223;28;93967;-63
2024/01/07 22:33:15;;;;;;;;;;;17.00;60.80;;;;;;10231494;28;92959;-63
2024/01/07 22:38:17;;;;;;;;;;;16.90;60.70;;;;;;10244273;28;94495;-63
2024/01/07 22:43:21;;;;;;;;;;;16.90;60.60;;;;;;10241328;28;93447;-62
2024/01/07 22:48:23;;;;;;;;;;;16.80;60.50;;;;;;10226043;28;96425;-62
2024/01/07 22:53:25;;;;;;;;;;;16.80;60.50;;;;;;10223687;28;94174;-61
2024/01/07 22:58:27;;;;;;;;;;;16.70;60.50;;;;;;10233351;28;92779;-61
2024/01/07 23:03:29;;;;;;;;;;;16.70;60.40;;;;;;10210237;28;94400;-62
2024/01/07 23:08:30;;;;;;;;;;;16.60;60.40;;;;;;10209352;28;94598;-62
2024/01/07 23:13:32;;;;;;;;;;;16.60;60.00;;;;;;10237648;28;93905;-62
2024/01/07 23:18:34;;;;;;;;;;;16.50;59.40;;;;;;10230334;28;94462;-62
2024/01/07 23:23:36;;;;;;;;;;;16.60;59.00;;;;;;10236171;28;91954;-63
2024/01/07 23:28:38;;;;;;;;;;;16.50;58.50;;;;;;10239004;28;93459;-62
2024/01/07 23:33:40;;;;;;;;;;;16.50;58.20;;;;;;10219913;28;94414;-62
2024/01/07 23:38:43;;;;;;;;;;;16.50;58.00;;;;;;10231680;28;96773;-62
2024/01/07 23:43:44;;;;;;;;;;;16.50;57.70;;;;;;10225963;28;94374;-62
2024/01/07 23:48:46;;;;;;;;;;;16.50;57.40;;;;;;10237730;28;94435;-62
2024/01/07 23:53:48;;;;;;;;;;;16.40;57.20;;;;;;10234734;28;94662;-62
2024/01/07 23:58:50;;;;;;;;;;;16.40;57.70;;;;;;10228352;28;93462;-62
